createdAt,value
2022-09-07T00:00:52.388Z,43.69
2022-09-07T00:06:14.473Z,43.74
2022-09-07T00:11:36.202Z,43.34
2022-09-07T00:16:57.869Z,43.62
2022-09-07T00:22:19.591Z,43.64
2022-09-07T00:27:41.515Z,43.99
2022-09-07T00:33:03.223Z,43.93
2022-09-07T00:38:25.387Z,43.86
2022-09-07T00:43:53.410Z,43.69
2022-09-07T00:49:19.397Z,43.62
2022-09-07T00:54:46.223Z,43.57
2022-09-07T01:00:09.188Z,43.27
2022-09-07T01:05:40.962Z,43.54
2022-09-07T01:11:02.972Z,43.47
2022-09-07T01:16:55.412Z,43.85
2022-09-07T01:22:25.860Z,43.49
2022-09-07T01:28:14.739Z,43.71
2022-09-07T01:33:59.517Z,43.59
2022-09-07T01:39:27.453Z,43.32
2022-09-07T01:45:02.374Z,43.45
2022-09-07T01:50:28.525Z,43.63
2022-09-07T01:55:55.934Z,43.60
2022-09-07T02:01:30.024Z,43.52
2022-09-07T02:07:01.207Z,43.47
2022-09-07T02:12:31.323Z,43.59
2022-09-07T02:17:59.645Z,43.25
2022-09-07T02:23:26.182Z,43.62
2022-09-07T02:28:48.443Z,43.86
2022-09-07T02:34:10.539Z,43.62
2022-09-07T02:39:32.658Z,43.61
2022-09-07T02:44:54.478Z,43.49
2022-09-07T02:50:39.239Z,43.40
2022-09-07T02:56:22.580Z,43.42
2022-09-07T03:02:10.416Z,43.58
2022-09-07T03:07:43.493Z,43.59
2022-09-07T03:13:06.391Z,43.49
2022-09-07T03:18:28.529Z,43.48
2022-09-07T03:23:51.929Z,43.36
2022-09-07T03:29:13.724Z,43.36
2022-09-07T03:34:36.420Z,43.29
2022-09-07T03:39:58.282Z,42.99
2022-09-07T03:45:20.116Z,43.44
2022-09-07T03:50:41.927Z,42.96
2022-09-07T03:56:10.088Z,43.51
2022-09-07T04:01:31.979Z,43.34
2022-09-07T04:06:53.797Z,43.28
2022-09-07T04:12:15.520Z,43.28
2022-09-07T04:17:37.284Z,43.28
2022-09-07T04:22:59.031Z,43.07
2022-09-07T04:28:21.539Z,43.22
2022-09-07T04:33:44.531Z,42.98
2022-09-07T04:39:06.371Z,43.11
2022-09-07T04:44:28.097Z,42.96
2022-09-07T04:49:53.122Z,42.78
2022-09-07T04:55:14.939Z,42.72
2022-09-07T05:00:37.899Z,43.16
2022-09-07T05:06:07.345Z,42.99
2022-09-07T05:11:30.123Z,42.95
2022-09-07T05:16:52.059Z,43.22
2022-09-07T05:22:13.795Z,43.01
2022-09-07T05:27:35.472Z,43.08
2022-09-07T05:32:57.179Z,42.75
2022-09-07T05:38:18.902Z,42.88
2022-09-07T05:49:23.644Z,42.77
2022-09-07T05:54:45.680Z,43.08
2022-09-07T06:00:07.843Z,43.01
2022-09-07T06:05:29.646Z,42.97
2022-09-07T06:10:51.309Z,42.78
2022-09-07T06:16:14.537Z,43.22
2022-09-07T06:21:38.325Z,43.22
2022-09-07T06:27:00.008Z,43.04
2022-09-07T06:38:03.948Z,42.72
2022-09-07T06:43:25.686Z,42.53
2022-09-07T06:48:47.578Z,42.61
2022-09-07T06:59:51.699Z,42.21
2022-09-07T07:05:13.377Z,41.91
2022-09-07T07:10:39.314Z,42.02
2022-09-07T07:16:10.039Z,41.76
2022-09-07T07:21:48.540Z,42.09
2022-09-07T07:27:13.883Z,41.96
2022-09-07T07:32:37.734Z,41.92
2022-09-07T07:43:41.441Z,41.78
2022-09-07T07:49:03.098Z,41.92
2022-09-07T07:54:24.820Z,42.18
2022-09-07T07:59:46.478Z,41.61
2022-09-07T08:05:08.431Z,41.58
2022-09-07T08:10:30.246Z,41.89
2022-09-07T08:15:52.341Z,41.96
2022-09-07T08:21:15.877Z,42.10
2022-09-07T08:26:37.542Z,41.96
2022-09-07T08:31:59.183Z,41.89
2022-09-07T08:37:20.871Z,42.16
2022-09-07T08:43:01.363Z,42.13
2022-09-07T08:48:31.314Z,42.22
2022-09-07T08:53:53.299Z,42.14
2022-09-07T08:59:23.008Z,41.70
2022-09-07T09:10:29.439Z,41.57
2022-09-07T09:16:04.344Z,42.11
2022-09-07T09:21:27.261Z,41.95
2022-09-07T09:26:56.710Z,41.68
2022-09-07T09:32:39.998Z,41.33
2022-09-07T09:38:03.809Z,41.06
2022-09-07T09:43:31.574Z,41.27
2022-09-07T09:49:05.609Z,41.25
2022-09-07T09:54:37.319Z,40.78
2022-09-07T10:00:07.011Z,40.85
2022-09-07T10:05:35.749Z,40.57
2022-09-07T10:11:10.115Z,40.85
2022-09-07T10:16:42.994Z,40.89
2022-09-07T10:22:22.287Z,40.86
2022-09-07T10:27:46.929Z,40.88
2022-09-07T10:33:21.846Z,40.74
2022-09-07T10:38:53.894Z,40.86
2022-09-07T10:44:28.779Z,40.96
2022-09-07T10:55:48.118Z,40.99
2022-09-07T11:01:28.324Z,40.85
2022-09-07T11:06:55.366Z,40.83
2022-09-07T11:12:26.048Z,40.91
2022-09-07T11:17:57.487Z,40.50
2022-09-07T11:23:28.750Z,40.62
2022-09-07T11:34:57.594Z,40.20
2022-09-07T11:40:39.747Z,39.96
2022-09-07T11:46:08.047Z,39.92
2022-09-07T11:51:40.676Z,39.83
2022-09-07T11:57:21.659Z,39.62
2022-09-07T12:03:04.328Z,39.34
2022-09-07T12:08:34.777Z,39.78
2022-09-07T12:14:08.529Z,39.66
2022-09-07T12:19:30.346Z,39.62
2022-09-07T12:24:53.880Z,39.69
2022-09-07T12:30:15.468Z,39.58
2022-09-07T12:35:40.919Z,39.80
2022-09-07T12:41:05.116Z,39.47
2022-09-07T12:46:34.864Z,39.81
2022-09-07T12:52:27.644Z,39.59
2022-09-07T12:58:30.177Z,39.48
2022-09-07T13:04:00.766Z,39.27
2022-09-07T13:09:31.212Z,38.83
2022-09-07T13:14:56.328Z,38.86
2022-09-07T13:20:23.716Z,38.08
2022-09-07T13:25:48.607Z,37.99
2022-09-07T13:31:47.517Z,37.44
2022-09-07T13:37:45.977Z,37.40
2022-09-07T13:43:16.825Z,37.25
2022-09-07T13:48:50.493Z,36.81
2022-09-07T13:54:37.282Z,36.79
2022-09-07T13:59:59.559Z,37.08
2022-09-07T14:05:22.565Z,36.88
2022-09-07T14:10:48.899Z,37.25
2022-09-07T14:16:11.038Z,37.63
2022-09-07T14:21:32.864Z,37.20
2022-09-07T14:26:55.052Z,37.52
2022-09-07T14:32:25.186Z,37.57
2022-09-07T14:37:48.372Z,37.55
2022-09-07T14:43:33.695Z,37.75
2022-09-07T14:48:58.128Z,37.78
2022-09-07T14:54:34.335Z,37.51
2022-09-07T14:59:57.402Z,37.76
2022-09-07T15:05:29.428Z,37.66
2022-09-07T15:16:45.062Z,37.28
2022-09-07T15:22:13.410Z,37.41
2022-09-07T15:27:35.402Z,37.43
2022-09-07T15:32:57.685Z,37.23
2022-09-07T15:44:02.441Z,36.95
2022-09-07T15:49:24.162Z,36.89
2022-09-07T15:54:45.865Z,37.11
2022-09-07T16:00:08.357Z,36.91
2022-09-07T16:05:31.385Z,36.85
2022-09-07T16:10:54.316Z,37.09
2022-09-07T16:16:17.258Z,37.30
2022-09-07T16:21:41.139Z,37.08
2022-09-07T16:27:03.325Z,37.19
2022-09-07T16:43:49.613Z,37.25
2022-09-07T16:49:12.148Z,37.38
2022-09-07T16:54:33.815Z,36.87
2022-09-07T16:59:55.554Z,37.32
2022-09-07T17:05:17.248Z,37.38
2022-09-07T17:10:38.932Z,37.41
2022-09-07T17:16:30.808Z,37.85
2022-09-07T17:21:53.882Z,37.59
2022-09-07T17:27:15.555Z,37.96
2022-09-07T17:32:37.542Z,38.07
2022-09-07T17:38:00.946Z,38.49
2022-09-07T17:43:44.815Z,38.10
2022-09-07T17:49:08.168Z,38.26
2022-09-07T17:54:29.916Z,38.17
2022-09-07T18:05:33.637Z,38.10
2022-09-07T18:16:37.205Z,38.08
2022-09-07T18:21:59.539Z,38.49
2022-09-07T18:27:21.587Z,38.82
2022-09-07T18:32:45.077Z,38.55
2022-09-07T18:38:07.158Z,38.53
2022-09-07T18:43:30.974Z,38.07
2022-09-07T18:48:54.262Z,38.15
2022-09-07T18:54:15.936Z,38.01
2022-09-07T18:59:37.608Z,38.25
2022-09-07T19:10:40.886Z,38.00
2022-09-07T19:16:09.949Z,38.08
2022-09-07T19:21:37.532Z,38.56
2022-09-07T19:27:00.639Z,38.14
2022-09-07T19:32:22.819Z,38.47
2022-09-07T19:37:44.478Z,39.31
2022-09-07T19:43:06.667Z,38.74
2022-09-07T19:48:32.063Z,39.05
2022-09-07T19:53:53.947Z,39.14
2022-09-07T19:59:16.165Z,39.16
2022-09-07T20:04:38.134Z,39.12
2022-09-07T20:09:59.987Z,38.92
2022-09-07T20:15:21.618Z,38.86
2022-09-07T20:20:43.428Z,38.83
2022-09-07T20:26:10.937Z,38.63
2022-09-07T20:31:32.703Z,38.57
2022-09-07T20:36:54.951Z,38.34
2022-09-07T20:42:16.623Z,38.59
2022-09-07T20:47:38.500Z,38.56
2022-09-07T20:53:00.130Z,38.68
2022-09-07T20:58:21.774Z,38.72
2022-09-07T21:03:49.979Z,38.55
2022-09-07T21:09:11.722Z,38.68
2022-09-07T21:14:33.403Z,38.47
2022-09-07T21:19:55.031Z,38.89
2022-09-07T21:25:16.732Z,38.40
2022-09-07T21:30:38.413Z,38.75
2022-09-07T21:36:08.001Z,38.64
2022-09-07T21:41:30.566Z,38.73
2022-09-07T21:46:52.303Z,38.85
2022-09-07T21:52:14.114Z,38.63
2022-09-07T21:57:35.830Z,38.55
2022-09-07T22:02:57.833Z,39.07
2022-09-07T22:08:19.902Z,38.70
2022-09-07T22:13:41.928Z,38.78
2022-09-07T22:19:04.772Z,39.15
2022-09-07T22:24:26.596Z,38.83
2022-09-07T22:29:48.235Z,39.04
2022-09-07T22:35:10.351Z,38.92
2022-09-07T22:40:32.068Z,39.09
2022-09-07T22:45:53.718Z,38.97
2022-09-07T22:51:15.514Z,38.97
2022-09-07T22:56:37.448Z,39.05
2022-09-07T23:01:59.362Z,38.92
2022-09-07T23:07:22.029Z,39.10
2022-09-07T23:12:43.760Z,38.88
2022-09-07T23:18:05.444Z,39.49
2022-09-07T23:23:28.012Z,39.31
2022-09-07T23:29:00.482Z,38.86
2022-09-07T23:34:22.138Z,39.31
2022-09-07T23:39:44.607Z,38.96
2022-09-07T23:45:08.285Z,39.37
2022-09-07T23:50:29.985Z,39.42
2022-09-07T23:55:53.348Z,39.29
